createdAt,value
2017-03-02T00:00:34.112Z,988.05
2017-03-02T00:01:34.146Z,988.06
2017-03-02T00:02:34.178Z,988.02
2017-03-02T00:03:34.214Z,988.04
2017-03-02T00:04:34.248Z,987.96
2017-03-02T00:05:34.285Z,987.94
2017-03-02T00:06:34.315Z,987.95
2017-03-02T00:07:34.350Z,987.94
2017-03-02T00:08:34.384Z,987.93
2017-03-02T00:09:34.418Z,987.97
2017-03-02T00:10:34.452Z,987.96
2017-03-02T00:11:34.488Z,988
2017-03-02T00:12:34.520Z,987.95
2017-03-02T00:13:34.554Z,987.95
2017-03-02T00:14:34.588Z,987.94
2017-03-02T00:15:34.623Z,987.96
2017-03-02T00:16:34.657Z,987.96
2017-03-02T00:17:34.689Z,987.93
2017-03-02T00:18:34.725Z,987.87
2017-03-02T00:19:34.757Z,987.83
2017-03-02T00:20:34.792Z,987.81
2017-03-02T00:21:34.827Z,987.83
2017-03-02T00:22:34.860Z,987.85
2017-03-02T00:23:34.894Z,987.82
2017-03-02T00:24:34.927Z,987.82
2017-03-02T00:25:34.960Z,987.79
2017-03-02T00:26:34.996Z,987.72
2017-03-02T00:27:35.029Z,987.73
2017-03-02T00:28:35.064Z,987.7
2017-03-02T00:29:35.098Z,987.71
2017-03-02T00:30:35.131Z,987.66
2017-03-02T00:31:35.167Z,987.64
2017-03-02T00:32:35.201Z,987.66
2017-03-02T00:33:35.234Z,987.66
2017-03-02T00:34:35.268Z,987.65
2017-03-02T00:35:35.301Z,987.64
2017-03-02T00:36:35.335Z,987.65
2017-03-02T00:37:35.370Z,987.64
2017-03-02T00:38:35.405Z,987.64
2017-03-02T00:39:35.439Z,987.62
2017-03-02T00:40:35.471Z,987.62
2017-03-02T00:41:35.506Z,987.54
2017-03-02T00:42:35.539Z,987.52
2017-03-02T00:43:35.573Z,987.52
2017-03-02T00:44:35.608Z,987.52
2017-03-02T00:45:35.640Z,987.51
2017-03-02T00:46:35.675Z,987.53
2017-03-02T00:47:35.710Z,987.52
2017-03-02T00:48:35.744Z,987.47
2017-03-02T00:49:35.777Z,987.51
2017-03-02T00:50:35.811Z,987.5
2017-03-02T00:51:35.845Z,987.47
2017-03-02T00:52:35.879Z,987.47
2017-03-02T00:53:35.914Z,987.44
2017-03-02T00:54:35.947Z,987.4
2017-03-02T00:55:35.982Z,987.39
2017-03-02T00:56:36.014Z,987.36
2017-03-02T00:57:36.048Z,987.34
2017-03-02T00:58:36.083Z,987.34
2017-03-02T00:59:36.116Z,987.25
2017-03-02T01:00:36.150Z,987.2
2017-03-02T01:01:36.184Z,987.1
2017-03-02T01:02:36.220Z,987.06
2017-03-02T01:03:36.252Z,987.05
2017-03-02T01:04:36.286Z,986.97
2017-03-02T01:05:36.318Z,986.89
2017-03-02T01:06:36.353Z,986.83
2017-03-02T01:07:36.388Z,986.79
2017-03-02T01:08:36.421Z,986.81
2017-03-02T01:09:36.456Z,986.77
2017-03-02T01:10:36.491Z,986.71
2017-03-02T01:11:36.523Z,986.7
2017-03-02T01:12:36.556Z,986.68
2017-03-02T01:13:36.592Z,986.68
2017-03-02T01:14:36.625Z,986.62
2017-03-02T01:15:36.660Z,986.6
2017-03-02T01:16:36.693Z,986.56
2017-03-02T01:17:36.727Z,986.62
2017-03-02T01:18:36.762Z,986.63
2017-03-02T01:19:36.795Z,986.65
2017-03-02T01:20:36.831Z,986.7
2017-03-02T01:21:36.864Z,986.68
2017-03-02T01:22:36.926Z,986.7
2017-03-02T01:23:36.930Z,986.71
2017-03-02T01:24:36.965Z,986.7
2017-03-02T01:25:36.999Z,986.68
2017-03-02T01:26:37.034Z,986.67
2017-03-02T01:27:37.067Z,986.65
2017-03-02T01:28:37.100Z,986.71
2017-03-02T01:29:37.135Z,986.67
2017-03-02T01:30:37.168Z,986.71
2017-03-02T01:31:37.203Z,986.67
2017-03-02T01:32:37.237Z,986.63
2017-03-02T01:33:37.301Z,986.64
2017-03-02T01:34:37.304Z,986.55
2017-03-02T01:35:37.362Z,986.54
2017-03-02T01:36:37.372Z,986.53
2017-03-02T01:37:37.405Z,986.45
2017-03-02T01:38:37.439Z,986.44
2017-03-02T01:39:37.474Z,986.44
2017-03-02T01:40:37.507Z,986.44
2017-03-02T01:41:37.540Z,986.39
2017-03-02T01:42:37.575Z,986.36
2017-03-02T01:43:37.607Z,986.32
2017-03-02T01:44:37.671Z,986.31
2017-03-02T01:45:37.676Z,986.29
2017-03-02T01:46:37.709Z,986.24
2017-03-02T01:47:37.745Z,986.22
2017-03-02T01:48:37.776Z,986.17
2017-03-02T01:49:37.810Z,986.18
2017-03-02T01:50:37.845Z,986.12
2017-03-02T01:51:37.880Z,986.15
2017-03-02T01:52:37.912Z,986.14
2017-03-02T01:53:37.946Z,986.13
2017-03-02T01:54:37.984Z,986.06
2017-03-02T01:55:38.014Z,986.06
2017-03-02T01:56:38.047Z,986.05
2017-03-02T01:57:38.081Z,986.01
2017-03-02T01:58:38.116Z,985.99
2017-03-02T01:59:38.149Z,986.03
2017-03-02T02:00:38.184Z,985.99
2017-03-02T02:01:38.218Z,985.99
2017-03-02T02:02:38.252Z,986
2017-03-02T02:03:38.286Z,985.95
2017-03-02T02:04:38.318Z,985.93
2017-03-02T02:05:38.353Z,985.96
2017-03-02T02:06:38.387Z,985.87
2017-03-02T02:07:38.420Z,985.86
2017-03-02T02:08:38.455Z,985.84
2017-03-02T02:09:38.488Z,985.83
2017-03-02T02:10:38.522Z,985.81
2017-03-02T02:11:38.555Z,985.84
2017-03-02T02:12:38.589Z,985.85
2017-03-02T02:13:38.625Z,985.88
2017-03-02T02:14:38.656Z,985.88
2017-03-02T02:15:38.691Z,985.87
2017-03-02T02:16:38.724Z,985.86
2017-03-02T02:17:38.758Z,985.79
2017-03-02T02:18:38.792Z,985.82
2017-03-02T02:19:38.827Z,985.78
2017-03-02T02:20:38.891Z,985.79
2017-03-02T02:21:38.894Z,985.79
2017-03-02T02:22:38.927Z,985.77
2017-03-02T02:23:38.960Z,985.76
2017-03-02T02:24:38.996Z,985.7
2017-03-02T02:25:39.028Z,985.68
2017-03-02T02:26:39.064Z,985.67
2017-03-02T02:27:39.097Z,985.68
2017-03-02T02:28:39.132Z,985.62
2017-03-02T02:29:39.166Z,985.58
2017-03-02T02:30:39.199Z,985.57
2017-03-02T02:31:39.233Z,985.63
2017-03-02T02:32:39.265Z,985.61
2017-03-02T02:33:39.300Z,985.55
2017-03-02T02:34:39.334Z,985.55
2017-03-02T02:35:39.368Z,985.53
2017-03-02T02:36:39.402Z,985.48
2017-03-02T02:37:39.435Z,985.43
2017-03-02T02:38:39.469Z,985.39
2017-03-02T02:39:39.503Z,985.41
2017-03-02T02:40:39.537Z,985.41
2017-03-02T02:41:39.570Z,985.45
2017-03-02T02:42:39.605Z,985.41
2017-03-02T02:43:39.637Z,985.37
2017-03-02T02:44:39.672Z,985.37
2017-03-02T02:45:39.706Z,985.38
2017-03-02T02:46:39.741Z,985.37
2017-03-02T02:47:39.774Z,985.36
2017-03-02T02:48:39.808Z,985.34
2017-03-02T02:49:39.843Z,985.37
2017-03-02T02:50:39.877Z,985.36
2017-03-02T02:51:39.909Z,985.31
2017-03-02T02:52:39.948Z,985.3
2017-03-02T02:53:39.978Z,985.27
2017-03-02T02:54:40.011Z,985.21
2017-03-02T02:55:40.045Z,985.27
2017-03-02T02:56:40.079Z,985.22
2017-03-02T02:57:40.117Z,985.18
2017-03-02T02:58:40.152Z,985.18
2017-03-02T02:59:40.181Z,985.2
2017-03-02T03:00:40.216Z,985.17
2017-03-02T03:01:40.249Z,985.22
2017-03-02T03:02:40.283Z,985.2
2017-03-02T03:03:40.318Z,985.17
2017-03-02T03:04:40.351Z,985.14
2017-03-02T03:05:40.385Z,985.15
2017-03-02T03:06:40.418Z,985.18
2017-03-02T03:07:40.453Z,985.24
2017-03-02T03:08:40.488Z,985.14
2017-03-02T03:09:40.521Z,985.14
2017-03-02T03:10:40.554Z,985.1
2017-03-02T03:11:40.589Z,985.08
2017-03-02T03:12:40.624Z,985.12
2017-03-02T03:13:40.657Z,985.12
2017-03-02T03:14:40.693Z,985.1
2017-03-02T03:15:40.725Z,985.04
2017-03-02T03:16:40.759Z,985.08
2017-03-02T03:17:40.793Z,985.09
2017-03-02T03:18:40.827Z,985.12
2017-03-02T03:19:40.863Z,985.07
2017-03-02T03:20:40.895Z,985.03
2017-03-02T03:21:40.929Z,984.99
2017-03-02T03:22:40.963Z,984.98
2017-03-02T03:23:40.998Z,984.95
2017-03-02T03:24:41.031Z,984.99
2017-03-02T03:25:41.065Z,985.04
2017-03-02T03:26:41.099Z,985
2017-03-02T03:27:41.132Z,985.09
2017-03-02T03:28:41.167Z,985
2017-03-02T03:29:41.202Z,984.96
2017-03-02T03:30:41.235Z,984.95
2017-03-02T03:31:41.270Z,985
2017-03-02T03:32:41.304Z,984.98
2017-03-02T03:33:41.337Z,984.91
2017-03-02T03:34:41.371Z,984.99
2017-03-02T03:35:41.405Z,984.94
2017-03-02T03:36:41.440Z,984.85
2017-03-02T03:37:41.473Z,984.81
2017-03-02T03:38:41.507Z,984.89
2017-03-02T03:39:41.541Z,984.77
2017-03-02T03:40:41.576Z,984.9
2017-03-02T03:41:41.642Z,984.79
2017-03-02T03:42:41.642Z,984.72
2017-03-02T03:43:41.699Z,984.73
2017-03-02T03:44:41.712Z,984.72
2017-03-02T03:45:41.749Z,984.77
2017-03-02T03:46:41.781Z,984.78
2017-03-02T03:47:41.815Z,984.69
2017-03-02T03:48:41.850Z,984.69
2017-03-02T03:49:41.883Z,984.7
2017-03-02T03:50:41.917Z,984.64
2017-03-02T03:51:41.952Z,984.69
2017-03-02T03:52:42.011Z,984.71
2017-03-02T03:53:42.020Z,984.62
2017-03-02T03:54:42.054Z,984.63
2017-03-02T03:55:42.089Z,984.6
2017-03-02T03:56:42.122Z,984.45
2017-03-02T03:57:42.157Z,984.54
2017-03-02T03:58:42.190Z,984.61
2017-03-02T03:59:42.225Z,984.63
2017-03-02T04:00:42.259Z,984.59
2017-03-02T04:01:42.298Z,984.6
2017-03-02T04:02:42.329Z,984.59
2017-03-02T04:03:42.386Z,984.58
2017-03-02T04:04:42.395Z,984.58
2017-03-02T04:05:42.430Z,984.5
2017-03-02T04:06:42.465Z,984.49
2017-03-02T04:07:42.499Z,984.52
2017-03-02T04:08:42.533Z,984.48
2017-03-02T04:09:42.568Z,984.51
2017-03-02T04:10:42.602Z,984.49
2017-03-02T04:11:42.635Z,984.52
2017-03-02T04:12:42.669Z,984.49
2017-03-02T04:13:42.705Z,984.45
2017-03-02T04:14:42.739Z,984.48
2017-03-02T04:15:42.774Z,984.51
2017-03-02T04:16:42.807Z,984.56
2017-03-02T04:17:42.842Z,984.53
2017-03-02T04:18:42.876Z,984.54
2017-03-02T04:19:42.911Z,984.54
2017-03-02T04:20:42.944Z,984.61
2017-03-02T04:21:42.983Z,984.46
2017-03-02T04:22:43.012Z,984.53
2017-03-02T04:23:43.047Z,984.56
2017-03-02T04:24:43.082Z,984.57
2017-03-02T04:25:43.116Z,984.59
2017-03-02T04:26:43.150Z,984.56
2017-03-02T04:27:43.186Z,984.54
2017-03-02T04:28:43.221Z,984.55
2017-03-02T04:29:43.253Z,984.47
2017-03-02T04:30:43.290Z,984.46
2017-03-02T04:31:43.324Z,984.46
2017-03-02T04:32:43.359Z,984.44
2017-03-02T04:33:43.392Z,984.5
2017-03-02T04:34:43.431Z,984.46
2017-03-02T04:35:43.461Z,984.43
2017-03-02T04:36:43.495Z,984.43
2017-03-02T04:37:43.531Z,984.39
2017-03-02T04:38:43.565Z,984.47
2017-03-02T04:39:43.599Z,984.45
2017-03-02T04:40:43.633Z,984.42
2017-03-02T04:41:43.672Z,984.47
2017-03-02T04:42:43.703Z,984.4
2017-03-02T04:43:43.737Z,984.42
2017-03-02T04:44:43.772Z,984.45
2017-03-02T04:45:43.807Z,984.33
2017-03-02T04:46:43.842Z,984.46
2017-03-02T04:47:43.876Z,984.47
2017-03-02T04:48:43.911Z,984.38
2017-03-02T04:49:43.947Z,984.4
2017-03-02T04:50:43.981Z,984.42
2017-03-02T04:51:44.015Z,984.41
2017-03-02T04:52:44.050Z,984.39
2017-03-02T04:53:44.084Z,984.34
2017-03-02T04:54:44.119Z,984.36
2017-03-02T04:55:44.153Z,984.3
2017-03-02T04:56:44.191Z,984.33
2017-03-02T04:57:44.226Z,984.35
2017-03-02T04:58:44.256Z,984.31
2017-03-02T04:59:44.293Z,984.25
2017-03-02T05:00:44.327Z,984.3
2017-03-02T05:01:44.361Z,984.32
2017-03-02T05:02:44.395Z,984.27
2017-03-02T05:03:44.430Z,984.4
2017-03-02T05:04:44.465Z,984.28
2017-03-02T05:05:44.500Z,984.16
2017-03-02T05:06:44.534Z,984.32
2017-03-02T05:07:44.570Z,984.3
2017-03-02T05:08:44.604Z,984.24
2017-03-02T05:09:44.638Z,984.33
2017-03-02T05:10:44.673Z,984.29
2017-03-02T05:11:44.707Z,984.23
2017-03-02T05:12:44.742Z,984.28
2017-03-02T05:13:44.776Z,984.21
2017-03-02T05:14:44.811Z,984.17
2017-03-02T05:15:44.845Z,984.23
2017-03-02T05:16:44.879Z,984.12
2017-03-02T05:17:44.914Z,984.11
2017-03-02T05:18:44.949Z,984.15
2017-03-02T05:19:44.982Z,984.11
2017-03-02T05:20:45.017Z,984.13
2017-03-02T05:21:45.052Z,984.13
2017-03-02T05:22:45.087Z,984.13
2017-03-02T05:23:45.121Z,984.16
2017-03-02T05:24:45.155Z,984.13
2017-03-02T05:25:45.190Z,984.19
2017-03-02T05:26:45.229Z,984.31
2017-03-02T05:27:45.258Z,984.13
2017-03-02T05:28:45.293Z,984.23
2017-03-02T05:29:45.327Z,984.16
2017-03-02T05:30:45.362Z,984.08
2017-03-02T05:31:45.396Z,984.19
2017-03-02T05:32:45.429Z,984.19
2017-03-02T05:33:45.465Z,984.26
2017-03-02T05:34:45.499Z,984.18
2017-03-02T05:35:45.535Z,984.11
2017-03-02T05:36:45.569Z,984.18
2017-03-02T05:37:45.602Z,984.13
2017-03-02T05:38:45.638Z,984.15
2017-03-02T05:39:45.672Z,984.1
2017-03-02T05:40:45.707Z,984.15
2017-03-02T05:41:45.741Z,984.14
2017-03-02T05:42:45.774Z,984.2
2017-03-02T05:43:45.808Z,983.97
2017-03-02T05:44:45.844Z,984.13
2017-03-02T05:45:45.879Z,984.15
2017-03-02T05:46:45.912Z,984.23
2017-03-02T05:47:45.946Z,983.9
2017-03-02T05:48:45.982Z,984.01
2017-03-02T05:49:46.016Z,984.14
2017-03-02T05:50:46.050Z,984.11
2017-03-02T05:51:46.085Z,984.1
2017-03-02T05:52:46.120Z,984.18
2017-03-02T05:53:46.153Z,984.16
2017-03-02T05:54:46.188Z,984.24
2017-03-02T05:55:46.222Z,984.29
2017-03-02T05:56:46.257Z,984.24
2017-03-02T05:57:46.292Z,984.34
2017-03-02T05:58:46.326Z,984.3
2017-03-02T05:59:46.364Z,984.34
2017-03-02T06:00:46.397Z,984.36
2017-03-02T06:01:46.431Z,984.34
2017-03-02T06:02:46.465Z,984.39
2017-03-02T06:03:46.500Z,984.42
2017-03-02T06:04:46.534Z,984.41
2017-03-02T06:05:46.569Z,984.39
2017-03-02T06:06:46.603Z,984.44
2017-03-02T06:07:46.637Z,984.45
2017-03-02T06:08:46.671Z,984.42
2017-03-02T06:09:46.707Z,984.46
2017-03-02T06:10:46.742Z,984.48
2017-03-02T06:11:46.776Z,984.52
2017-03-02T06:12:46.811Z,984.42
2017-03-02T06:13:46.845Z,984.43
2017-03-02T06:14:46.881Z,984.47
2017-03-02T06:15:46.914Z,984.46
2017-03-02T06:16:46.967Z,984.44
2017-03-02T06:17:46.985Z,984.42
2017-03-02T06:18:47.019Z,984.5
2017-03-02T06:19:47.052Z,984.42
2017-03-02T06:20:47.088Z,984.36
2017-03-02T06:21:47.123Z,984.39
2017-03-02T06:22:47.160Z,984.44
2017-03-02T06:23:47.191Z,984.46
2017-03-02T06:24:47.227Z,984.47
2017-03-02T06:25:47.262Z,984.41
2017-03-02T06:26:47.296Z,984.57
2017-03-02T06:27:47.331Z,984.48
2017-03-02T06:28:47.365Z,984.63
2017-03-02T06:29:47.401Z,984.5
2017-03-02T06:30:47.436Z,984.53
2017-03-02T06:31:47.470Z,984.55
2017-03-02T06:32:47.505Z,984.62
2017-03-02T06:33:47.540Z,984.53
2017-03-02T06:34:47.575Z,984.56
2017-03-02T06:35:47.610Z,984.57
2017-03-02T06:36:47.645Z,984.57
2017-03-02T06:37:47.679Z,984.73
2017-03-02T06:38:47.743Z,984.66
2017-03-02T06:39:47.749Z,984.73
2017-03-02T06:40:47.784Z,984.66
2017-03-02T06:41:47.819Z,984.77
2017-03-02T06:42:47.855Z,984.76
2017-03-02T06:43:47.889Z,984.84
2017-03-02T06:44:47.924Z,984.76
2017-03-02T06:45:47.959Z,984.82
2017-03-02T06:46:47.996Z,984.68
2017-03-02T06:47:48.030Z,984.71
2017-03-02T06:48:48.065Z,984.76
2017-03-02T06:49:48.101Z,984.79
2017-03-02T06:50:48.136Z,984.75
2017-03-02T06:51:48.173Z,984.93
2017-03-02T06:52:48.206Z,984.8
2017-03-02T06:53:48.242Z,984.78
2017-03-02T06:54:48.278Z,984.86
2017-03-02T06:55:48.314Z,984.91
2017-03-02T06:56:48.348Z,984.92
2017-03-02T06:57:48.384Z,984.79
2017-03-02T06:58:48.420Z,985.02
2017-03-02T06:59:48.454Z,985.06
2017-03-02T07:00:48.491Z,984.95
2017-03-02T07:01:48.537Z,985.01
2017-03-02T07:02:48.562Z,984.94
2017-03-02T07:03:48.596Z,984.97
2017-03-02T07:04:48.633Z,985.05
2017-03-02T07:05:48.669Z,985.11
2017-03-02T07:06:48.704Z,985.08
2017-03-02T07:07:48.739Z,985
2017-03-02T07:08:48.776Z,985.03
2017-03-02T07:09:48.812Z,985.11
2017-03-02T07:10:48.850Z,985.09
2017-03-02T07:11:48.883Z,985.06
2017-03-02T07:12:49.893Z,985.15
2017-03-02T07:13:48.955Z,985.14
2017-03-02T07:14:48.989Z,985.13
2017-03-02T07:15:49.025Z,984.91
2017-03-02T07:16:49.062Z,985.11
2017-03-02T07:17:49.098Z,985.07
2017-03-02T07:18:49.134Z,985.15
2017-03-02T07:19:49.170Z,985.12
2017-03-02T07:20:49.208Z,985.08
2017-03-02T07:21:49.242Z,984.97
2017-03-02T07:22:49.278Z,985.23
2017-03-02T07:23:49.315Z,985.23
2017-03-02T07:24:49.351Z,985.17
2017-03-02T07:25:49.388Z,985.27
2017-03-02T07:26:49.424Z,985.2
2017-03-02T07:27:49.462Z,985.42
2017-03-02T07:28:49.498Z,985.41
2017-03-02T07:29:49.536Z,985.34
2017-03-02T07:30:49.586Z,985.41
2017-03-02T07:31:49.610Z,985.44
2017-03-02T07:32:49.646Z,985.56
2017-03-02T07:33:49.684Z,985.52
2017-03-02T07:34:49.721Z,985.43
2017-03-02T07:35:49.757Z,985.54
2017-03-02T07:36:49.795Z,985.59
2017-03-02T07:37:49.832Z,985.64
2017-03-02T07:38:49.869Z,985.63
2017-03-02T07:39:49.906Z,985.71
2017-03-02T07:40:49.942Z,985.83
2017-03-02T07:41:49.980Z,985.9
2017-03-02T07:42:50.017Z,986.09
2017-03-02T07:43:50.053Z,986.42
2017-03-02T07:44:50.091Z,986.93
2017-03-02T07:45:50.127Z,986.72
2017-03-02T07:46:50.162Z,986.72
2017-03-02T07:47:50.200Z,986.62
2017-03-02T07:48:50.237Z,986.6
2017-03-02T07:49:50.272Z,986.58
2017-03-02T07:50:50.309Z,986.63
2017-03-02T07:51:50.345Z,986.59
2017-03-02T07:52:50.381Z,986.59
2017-03-02T07:53:50.417Z,986.54
2017-03-02T07:54:50.458Z,986.67
2017-03-02T07:55:50.489Z,986.64
2017-03-02T07:56:50.523Z,986.63
2017-03-02T07:57:50.558Z,986.53
2017-03-02T07:58:50.594Z,986.53
2017-03-02T07:59:50.629Z,986.45
2017-03-02T08:00:50.666Z,986.51
2017-03-02T08:01:50.706Z,986.45
2017-03-02T08:02:50.737Z,986.53
2017-03-02T08:03:50.773Z,986.57
2017-03-02T08:04:50.808Z,986.61
2017-03-02T08:05:50.843Z,986.54
2017-03-02T08:06:50.877Z,986.43
2017-03-02T08:07:50.916Z,986.43
2017-03-02T08:08:50.948Z,986.49
2017-03-02T08:09:50.984Z,986.61
2017-03-02T08:10:51.019Z,986.64
2017-03-02T08:11:51.055Z,986.62
2017-03-02T08:12:51.090Z,986.58
2017-03-02T08:13:51.126Z,986.68
2017-03-02T08:14:51.163Z,986.69
2017-03-02T08:15:51.202Z,986.56
2017-03-02T08:16:51.232Z,986.65
2017-03-02T08:17:51.270Z,986.58
2017-03-02T08:18:51.305Z,986.59
2017-03-02T08:19:51.339Z,986.59
2017-03-02T08:20:51.377Z,986.59
2017-03-02T08:21:51.412Z,986.72
2017-03-02T08:22:51.449Z,986.64
2017-03-02T08:23:51.485Z,986.8
2017-03-02T08:24:51.521Z,986.72
2017-03-02T08:25:51.559Z,986.82
2017-03-02T08:26:51.596Z,986.82
2017-03-02T08:27:51.633Z,986.88
2017-03-02T08:28:51.671Z,986.83
2017-03-02T08:29:51.731Z,986.98
2017-03-02T08:30:51.748Z,986.96
2017-03-02T08:31:51.792Z,986.94
2017-03-02T08:32:51.829Z,986.9
2017-03-02T08:33:51.869Z,986.92
2017-03-02T08:34:51.908Z,986.88
2017-03-02T08:35:51.949Z,986.97
2017-03-02T08:36:51.989Z,986.95
2017-03-02T08:37:52.030Z,986.89
2017-03-02T08:38:52.069Z,986.77
2017-03-02T08:39:52.114Z,986.87
2017-03-02T08:40:52.148Z,986.85
2017-03-02T08:41:52.188Z,986.84
2017-03-02T08:42:52.233Z,986.85
2017-03-02T08:43:52.268Z,986.88
2017-03-02T08:44:52.307Z,986.87
2017-03-02T08:45:52.345Z,986.91
2017-03-02T08:46:52.385Z,986.87
2017-03-02T08:47:52.423Z,986.84
2017-03-02T08:48:52.463Z,986.8
2017-03-02T08:49:52.507Z,986.81
2017-03-02T08:50:52.538Z,986.79
2017-03-02T08:51:52.578Z,986.83
2017-03-02T08:52:52.648Z,986.87
2017-03-02T08:53:52.660Z,986.88
2017-03-02T08:54:52.692Z,986.93
2017-03-02T08:55:52.731Z,986.92
2017-03-02T08:56:52.768Z,987.03
2017-03-02T08:57:52.807Z,987.38
2017-03-02T08:58:52.844Z,987.34
2017-03-02T08:59:52.882Z,987.78
2017-03-02T09:00:52.921Z,987.59
2017-03-02T09:01:52.972Z,987.77
2017-03-02T09:02:53.995Z,987.72
2017-03-02T09:03:53.031Z,987.67
2017-03-02T09:04:53.079Z,987.65
2017-03-02T09:05:53.105Z,987.76
2017-03-02T09:06:53.143Z,987.73
2017-03-02T09:07:53.178Z,987.68
2017-03-02T09:08:53.215Z,987.68
2017-03-02T09:09:53.251Z,987.82
2017-03-02T09:10:53.289Z,987.8
2017-03-02T09:11:53.325Z,987.87
2017-03-02T09:12:53.362Z,987.64
2017-03-02T09:13:53.399Z,987.79
2017-03-02T09:14:53.436Z,987.8
2017-03-02T09:15:53.472Z,987.82
2017-03-02T09:16:53.508Z,987.83
2017-03-02T09:17:53.546Z,987.85
2017-03-02T09:18:53.588Z,987.97
2017-03-02T09:19:53.617Z,987.9
2017-03-02T09:20:53.654Z,988.01
2017-03-02T09:21:53.691Z,988.06
2017-03-02T09:22:53.728Z,988.07
2017-03-02T09:23:53.766Z,988.06
2017-03-02T09:24:53.805Z,988.26
2017-03-02T09:25:53.843Z,988.11
2017-03-02T09:26:53.883Z,988.23
2017-03-02T09:27:53.924Z,988.27
2017-03-02T09:28:53.964Z,988.31
2017-03-02T09:29:54.005Z,988.31
2017-03-02T09:30:54.045Z,988.3
2017-03-02T09:31:54.087Z,988.23
2017-03-02T09:32:54.129Z,988.2
2017-03-02T09:33:54.171Z,988.21
2017-03-02T09:34:54.214Z,988.35
2017-03-02T09:35:54.257Z,988.18
2017-03-02T09:36:54.299Z,988.34
2017-03-02T09:37:54.345Z,988.35
2017-03-02T09:38:54.386Z,988.23
2017-03-02T09:39:54.431Z,988.29
2017-03-02T09:40:54.474Z,988.35
2017-03-02T09:41:54.520Z,988.29
2017-03-02T09:42:54.564Z,988.5
2017-03-02T09:43:54.607Z,988.38
2017-03-02T09:44:54.653Z,988.42
2017-03-02T09:45:54.698Z,988.14
2017-03-02T09:46:54.744Z,988.53
2017-03-02T09:47:54.787Z,988.41
2017-03-02T09:48:54.834Z,988.38
2017-03-02T09:49:54.879Z,988.59
2017-03-02T09:50:54.925Z,988.51
2017-03-02T09:51:54.970Z,988.57
2017-03-02T09:52:55.017Z,988.58
2017-03-02T09:53:55.063Z,988.78
2017-03-02T09:54:55.109Z,988.62
2017-03-02T09:55:55.154Z,988.52
2017-03-02T09:56:55.200Z,988.45
2017-03-02T09:57:55.248Z,988.59
2017-03-02T09:58:55.293Z,988.58
2017-03-02T09:59:55.355Z,988.65
2017-03-02T10:00:55.386Z,988.54
2017-03-02T10:01:55.435Z,988.6
2017-03-02T10:02:55.478Z,988.59
2017-03-02T10:03:55.526Z,988.66
2017-03-02T10:04:55.571Z,988.85
2017-03-02T10:05:55.616Z,988.73
2017-03-02T10:06:55.663Z,988.8
2017-03-02T10:07:55.710Z,988.61
2017-03-02T10:08:55.758Z,988.8
2017-03-02T10:09:55.802Z,989.2
2017-03-02T10:10:55.849Z,988.82
2017-03-02T10:11:55.898Z,988.96
2017-03-02T10:12:55.944Z,989.03
2017-03-02T10:13:55.990Z,989
2017-03-02T10:14:56.036Z,989.03
2017-03-02T10:15:56.082Z,989.34
2017-03-02T10:16:56.129Z,988.82
2017-03-02T10:17:56.175Z,989.11
2017-03-02T10:18:56.221Z,989.18
2017-03-02T10:19:56.266Z,989.16
2017-03-02T10:20:56.312Z,989.27
2017-03-02T10:21:56.359Z,988.89
2017-03-02T10:22:56.406Z,989.22
2017-03-02T10:23:56.451Z,989.32
2017-03-02T10:24:56.497Z,989.31
2017-03-02T10:25:56.542Z,989.28
2017-03-02T10:26:56.587Z,989.39
2017-03-02T10:27:56.632Z,989.45
2017-03-02T10:28:56.676Z,989.6
2017-03-02T10:29:56.746Z,989.36
2017-03-02T10:30:56.765Z,989.34
2017-03-02T10:31:56.809Z,989.34
2017-03-02T10:32:56.853Z,989.52
2017-03-02T10:33:56.900Z,989.52
2017-03-02T10:34:56.945Z,989.3
2017-03-02T10:35:56.989Z,989.19
2017-03-02T10:36:57.035Z,989.65
2017-03-02T10:37:57.088Z,989.53
2017-03-02T10:38:57.126Z,989.45
2017-03-02T10:39:57.170Z,989.53
2017-03-02T10:40:57.214Z,989.61
2017-03-02T10:41:57.261Z,989.5
2017-03-02T10:42:57.304Z,989.48
2017-03-02T10:43:57.350Z,989.5
2017-03-02T10:44:57.394Z,989.51
2017-03-02T10:45:57.437Z,989.58
2017-03-02T10:46:57.481Z,989.57
2017-03-02T10:47:57.525Z,989.41
2017-03-02T10:48:57.569Z,989.35
2017-03-02T10:49:57.610Z,989.5
2017-03-02T10:50:57.652Z,989.53
2017-03-02T10:51:57.709Z,989.45
2017-03-02T10:52:57.737Z,989.43
2017-03-02T10:53:57.777Z,989.31
2017-03-02T10:54:57.818Z,989.29
2017-03-02T10:55:57.891Z,989.37
2017-03-02T10:56:57.900Z,989.43
2017-03-02T10:57:57.940Z,989.37
2017-03-02T10:58:57.982Z,989.34
2017-03-02T10:59:58.023Z,989.63
2017-03-02T11:00:58.062Z,989.54
2017-03-02T11:01:58.102Z,989.56
2017-03-02T11:02:58.143Z,989.63
2017-03-02T11:03:58.213Z,989.54
2017-03-02T11:04:58.224Z,989.48
2017-03-02T11:05:58.270Z,989.57
2017-03-02T11:06:58.304Z,989.75
2017-03-02T11:07:58.342Z,989.89
2017-03-02T11:08:58.383Z,989.89
2017-03-02T11:09:58.424Z,990.1
2017-03-02T11:10:58.461Z,990.62
2017-03-02T11:11:58.514Z,990.59
2017-03-02T11:12:58.543Z,990.58
2017-03-02T11:13:58.578Z,990.55
2017-03-02T11:14:58.618Z,990.66
2017-03-02T11:15:58.655Z,990.24
2017-03-02T11:16:58.693Z,990.31
2017-03-02T11:17:58.732Z,990.37
2017-03-02T11:18:58.770Z,990.33
2017-03-02T11:19:58.808Z,990.35
2017-03-02T11:20:58.847Z,990.39
2017-03-02T11:21:58.887Z,990.38
2017-03-02T11:22:58.925Z,990.45
2017-03-02T11:23:58.969Z,990.5
2017-03-02T11:24:59.016Z,990.47
2017-03-02T11:25:59.052Z,990.42
2017-03-02T11:26:59.094Z,990.41
2017-03-02T11:27:59.127Z,990.51
2017-03-02T11:28:59.167Z,990.38
2017-03-02T11:29:59.209Z,990.37
2017-03-02T11:30:59.280Z,990.34
2017-03-02T11:31:59.292Z,990.38
2017-03-02T11:32:59.340Z,990.33
2017-03-02T11:33:59.374Z,990.36
2017-03-02T11:34:59.415Z,990.26
2017-03-02T11:35:59.454Z,990.34
2017-03-02T11:36:59.497Z,990.27
2017-03-02T11:37:59.537Z,990.27
2017-03-02T11:38:59.579Z,990.31
2017-03-02T11:39:59.620Z,990.35
2017-03-02T11:40:59.661Z,990.39
2017-03-02T11:41:59.702Z,990.28
2017-03-02T11:42:59.744Z,990.31
2017-03-02T11:43:59.786Z,990.14
2017-03-02T11:44:59.826Z,990.1
2017-03-02T11:45:59.867Z,990.35
2017-03-02T11:46:59.908Z,990.38
2017-03-02T11:47:59.950Z,990.33
2017-03-02T11:48:59.989Z,990.37
2017-03-02T11:50:00.030Z,990.42
2017-03-02T11:51:00.071Z,990.44
2017-03-02T11:52:00.112Z,990.31
2017-03-02T11:53:00.157Z,990.43
2017-03-02T11:54:00.193Z,990.36
2017-03-02T11:55:00.235Z,990.34
2017-03-02T11:56:00.272Z,990.33
2017-03-02T11:57:00.314Z,990.41
2017-03-02T11:58:00.359Z,990.33
2017-03-02T11:59:00.394Z,990.2
2017-03-02T12:00:00.433Z,990.41
2017-03-02T12:01:00.480Z,990.28
2017-03-02T12:02:00.512Z,990.29
2017-03-02T12:03:00.552Z,990.34
2017-03-02T12:04:00.592Z,990.36
2017-03-02T12:05:00.631Z,990.33
2017-03-02T12:06:00.672Z,990.42
2017-03-02T12:07:00.709Z,990.34
2017-03-02T12:08:00.750Z,990.41
2017-03-02T12:09:00.790Z,990.35
2017-03-02T12:10:00.829Z,990.45
2017-03-02T12:11:00.867Z,990.45
2017-03-02T12:12:00.912Z,990.33
2017-03-02T12:13:00.948Z,990.41
2017-03-02T12:14:00.985Z,990.45
2017-03-02T12:15:01.024Z,990.47
2017-03-02T12:16:01.063Z,990.43
2017-03-02T12:17:01.104Z,990.53
2017-03-02T12:18:01.143Z,990.47
2017-03-02T12:19:01.181Z,990.56
2017-03-02T12:20:01.222Z,990.37
2017-03-02T12:21:01.260Z,990.48
2017-03-02T12:22:01.299Z,990.6
2017-03-02T12:23:01.337Z,990.62
2017-03-02T12:24:01.379Z,990.7
2017-03-02T12:25:01.414Z,990.41
2017-03-02T12:26:01.478Z,990.71
2017-03-02T12:27:01.492Z,990.64
2017-03-02T12:28:01.529Z,990.74
2017-03-02T12:29:01.567Z,990.62
2017-03-02T12:30:01.607Z,990.69
2017-03-02T12:31:01.646Z,990.73
2017-03-02T12:32:01.681Z,990.59